Time;durP1;ratioP1;P1;durP2;ratioP2;P2;SDS_P1;SDS_P2;PMS_P1;PMS_P2;Temp;Humidity;BMP_temperature;BMP_pressure;BME280_temperature;BME280_humidity;BME280_pressure;Samples;Min_cycle;Max_cycle;Signal;HPM_P1;HPM_P2
2024/03/27 00:00:15;;;;;;;1999.90;999.90;;;;;;;9.52;88.55;98504.94;10528155;28;20117;-64
2024/03/27 00:05:17;;;;;;;1999.90;999.90;;;;;;;9.50;88.05;98494.63;10510535;28;20508;-64
2024/03/27 00:10:18;;;;;;;1999.90;999.90;;;;;;;9.62;86.33;98492.69;10528449;28;20138;-64
2024/03/27 00:15:20;;;;;;;1999.90;999.90;;;;;;;9.72;83.12;98485.66;10527789;28;20040;-64
2024/03/27 00:20:21;;;;;;;1999.90;999.90;;;;;;;9.60;84.02;98482.38;10527448;28;20056;-64
2024/03/27 00:25:23;;;;;;;1999.90;999.90;;;;;;;9.72;83.28;98480.44;10526822;28;20051;-64
2024/03/27 00:30:24;;;;;;;1999.90;999.90;;;;;;;9.69;81.74;98480.72;10526971;28;20063;-64
2024/03/27 00:35:26;;;;;;;1999.90;999.90;;;;;;;9.63;85.26;98481.25;10526560;28;20059;-64
2024/03/27 00:40:28;;;;;;;1999.90;999.90;;;;;;;9.38;87.01;98470.44;10508926;28;20435;-65
2024/03/27 00:45:30;;;;;;;1999.90;999.90;;;;;;;9.36;85.65;98467.09;10526279;28;20048;-64
2024/03/27 00:50:31;;;;;;;1999.90;999.90;;;;;;;9.55;82.83;98465.44;10526968;28;20120;-64
2024/03/27 00:55:33;;;;;;;1999.90;999.90;;;;;;;9.27;84.64;98463.53;10525848;28;20044;-64
2024/03/27 01:00:34;;;;;;;1999.90;999.90;;;;;;;8.88;88.59;98468.72;10526046;28;20111;-64
2024/03/27 01:05:40;;;;;;;1999.90;999.90;;;;;;;9.07;87.04;98459.25;10526300;28;20056;-64
2024/03/27 01:10:41;;;;;;;1999.90;999.90;;;;;;;9.09;89.85;98462.56;10525793;28;20060;-64
2024/03/27 01:15:51;;;;;;;1999.90;999.90;;;;;;;9.08;87.06;98459.13;10524884;28;20451;-64
2024/03/27 01:20:52;;;;;;;1999.90;999.90;;;;;;;9.04;87.03;98455.13;10508466;28;20054;-64
2024/03/27 01:25:53;;;;;;;1999.90;999.90;;;;;;;8.81;89.01;98451.09;10524355;28;20404;-64
2024/03/27 01:30:55;;;;;;;1999.90;999.90;;;;;;;8.92;86.87;98445.78;10524450;28;20047;-64
2024/03/27 01:35:56;;;;;;;1999.90;999.90;;;;;;;8.88;86.74;98440.00;10524132;28;20409;-64
2024/03/27 01:40:57;;;;;;;1999.90;999.90;;;;;;;8.80;89.67;98429.41;10524398;28;20056;-64
2024/03/27 01:45:59;;;;;;;1999.90;999.90;;;;;;;8.73;88.36;98429.13;10523681;28;20496;-64
2024/03/27 01:51:01;;;;;;;1999.90;999.90;;;;;;;9.07;85.83;98428.75;10507048;28;20055;-64
2024/03/27 01:56:03;;;;;;;1999.90;999.90;;;;;;;9.03;86.54;98423.97;10506536;28;20056;-64
2024/03/27 02:01:04;;;;;;;1999.90;999.90;;;;;;;8.87;86.96;98414.84;10522548;28;20489;-64
2024/03/27 02:06:06;;;;;;;1999.90;999.90;;;;;;;8.86;89.22;98399.34;10522837;28;20044;-64
2024/03/27 02:11:08;;;;;;;1999.90;999.90;;;;;;;8.72;89.87;98397.94;10506474;28;20048;-64
2024/03/27 02:16:09;;;;;;;1999.90;999.90;;;;;;;8.77;89.87;98379.28;10505559;28;20048;-64
2024/03/27 02:21:12;;;;;;;1999.90;999.90;;;;;;;8.91;88.52;98376.28;10522944;28;20060;-64
2024/03/27 02:26:17;;;;;;;1999.90;999.90;;;;;;;8.83;89.08;98381.38;10522620;28;20048;-64
2024/03/27 02:31:19;;;;;;;1999.90;999.90;;;;;;;8.71;89.95;98381.47;10522809;28;20055;-64
2024/03/27 02:36:20;;;;;;;1999.90;999.90;;;;;;;8.89;89.21;98376.44;10521296;28;20056;-64
2024/03/27 02:41:21;;;;;;;1999.90;999.90;;;;;;;8.82;90.23;98387.53;10521358;28;20067;-64
2024/03/27 02:46:23;;;;;;;1999.90;999.90;;;;;;;9.00;86.69;98391.13;10521816;28;20048;-64
2024/03/27 02:51:24;;;;;;;1999.90;999.90;;;;;;;8.86;90.13;98370.63;10522308;28;20060;-64
2024/03/27 02:56:26;;;;;;;1999.90;999.90;;;;;;;8.79;91.79;98374.75;10521640;28;20051;-64
2024/03/27 03:01:27;;;;;;;1999.90;999.90;;;;;;;8.69;91.59;98369.53;10520135;28;20513;-64
2024/03/27 03:06:28;;;;;;;1999.90;999.90;;;;;;;8.73;91.25;98370.91;10520930;28;20055;-65
2024/03/27 03:11:30;;;;;;;1999.90;999.90;;;;;;;8.54;93.55;98376.94;10521522;28;20047;-64
2024/03/27 03:16:31;;;;;;;1999.90;999.90;;;;;;;8.39;93.61;98371.25;10504089;28;20052;-64
2024/03/27 03:21:34;;;;;;;1999.90;999.90;;;;;;;8.84;90.36;98368.19;10520957;28;20052;-64
2024/03/27 03:26:38;;;;;;;1999.90;999.90;;;;;;;8.82;91.02;98377.09;10521376;28;20070;-64
2024/03/27 03:31:39;;;;;;;1999.90;999.90;;;;;;;8.72;92.36;98377.09;10520562;28;20492;-64
2024/03/27 03:36:40;;;;;;;1999.90;999.90;;;;;;;8.71;92.70;98381.47;10520268;28;20488;-64
2024/03/27 03:41:42;;;;;;;1999.90;999.90;;;;;;;8.63;93.81;98385.72;10520139;28;20052;-64
2024/03/27 03:46:44;;;;;;;1999.90;999.90;;;;;;;8.51;95.92;98380.63;10520687;28;20059;-64
2024/03/27 03:56:47;;;;;;;1999.90;999.90;;;;;;;8.50;94.98;98365.91;10435549;28;20521;-63
2024/03/27 04:01:49;;;;;;;1999.90;999.90;;;;;;;8.50;96.49;98355.50;10437349;28;20049;-63
2024/03/27 04:06:50;;;;;;;1999.90;999.90;;;;;;;8.77;94.91;98348.78;10437357;28;20390;-63
2024/03/27 04:11:52;;;;;;;1999.90;999.90;;;;;;;8.48;96.73;98330.53;10439414;28;20057;-64
2024/03/27 04:16:53;;;;;;;1999.90;999.90;;;;;;;8.60;98.13;98326.00;10444287;28;20508;-63
2024/03/27 04:21:55;;;;;;;1999.90;999.90;;;;;;;8.40;98.33;98325.13;10444692;28;20049;-63
2024/03/27 04:26:56;;;;;;;1999.90;999.90;;;;;;;8.54;98.30;98325.59;10443871;28;20489;-63
2024/03/27 04:31:58;;;;;;;1999.90;999.90;;;;;;;8.26;100.00;98337.56;10444217;28;20060;-64
2024/03/27 04:36:59;;;;;;;1999.90;999.90;;;;;;;8.48;100.00;98322.69;10444563;28;20060;-63
2024/03/27 04:42:01;;;;;;;1999.90;999.90;;;;;;;8.33;100.00;98340.47;10427549;28;20049;-64
2024/03/27 04:47:03;;;;;;;1999.90;999.90;;;;;;;8.37;100.00;98332.25;10443573;28;20053;-64
2024/03/27 04:52:04;;;;;;;1999.90;999.90;;;;;;;8.14;100.00;98336.03;10460478;28;20060;-63
2024/03/27 04:57:06;;;;;;;1999.90;999.90;;;;;;;8.16;100.00;98339.34;10442850;28;20048;-63
2024/03/27 05:02:07;;;;;;;1999.90;999.90;;;;;;;8.19;100.00;98344.28;10442842;28;20102;-63
2024/03/27 05:07:08;;;;;;;1999.90;999.90;;;;;;;8.07;100.00;98350.53;10442615;28;20559;-63
2024/03/27 05:12:15;;;;;;;1999.90;999.90;;;;;;;8.21;100.00;98360.63;10443278;28;20075;-63
2024/03/27 05:17:16;;;;;;;1999.90;999.90;;;;;;;8.26;100.00;98365.44;10442241;28;20060;-63
2024/03/27 05:22:18;;;;;;;1999.90;999.90;;;;;;;8.34;100.00;98374.25;10425177;28;20405;-63
2024/03/27 05:27:20;;;;;;;1999.90;999.90;;;;;;;9.00;100.00;98378.06;10442049;28;20387;-63
2024/03/27 05:32:22;;;;;;;1999.90;999.90;;;;;;;8.83;100.00;98394.41;10441210;28;20045;-63
2024/03/27 05:37:23;;;;;;;1999.90;999.90;;;;;;;9.01;100.00;98398.00;10457739;28;20056;-63
2024/03/27 05:42:24;;;;;;;1999.90;999.90;;;;;;;8.98;100.00;98406.09;10442163;28;20110;-63
2024/03/27 05:47:26;;;;;;;1999.90;999.90;;;;;;;9.35;100.00;98407.22;10424940;28;20481;-63
2024/03/27 05:52:28;;;;;;;1999.90;999.90;;;;;;;9.37;99.43;98400.88;10440939;28;20053;-64
2024/03/27 05:57:30;;;;;;;1999.90;999.90;;;;;;;9.44;100.00;98412.41;10440894;28;20055;-65
2024/03/27 06:02:31;;;;;;;1999.90;999.90;;;;;;;9.40;100.00;98411.03;10423361;28;20080;-64
2024/03/27 06:07:32;;;;;;;1999.90;999.90;;;;;;;9.59;100.00;98414.59;10440036;28;20049;-64
2024/03/27 06:12:34;;;;;;;1999.90;999.90;;;;;;;9.58;98.19;98426.84;10440539;28;20049;-64
2024/03/27 06:17:35;;;;;;;1999.90;999.90;;;;;;;9.54;100.00;98428.06;10440004;28;20064;-64
2024/03/27 06:22:36;;;;;;;1999.90;999.90;;;;;;;9.64;98.48;98433.28;10439859;28;20057;-64
2024/03/27 06:27:38;;;;;;;1999.90;999.90;;;;;;;9.53;99.82;98454.31;10440205;28;20107;-64
2024/03/27 06:32:41;;;;;;;1999.90;999.90;;;;;;;9.60;97.77;98443.19;10440070;28;20049;-64
2024/03/27 06:37:42;;;;;;;1999.90;999.90;;;;;;;9.57;100.00;98445.25;10439026;28;20060;-64
2024/03/27 06:42:44;;;;;;;1999.90;999.90;;;;;;;9.76;99.84;98447.00;10439200;28;20060;-64
2024/03/27 06:47:45;;;;;;;1999.90;999.90;;;;;;;9.76;100.00;98452.25;10438937;28;20064;-64
2024/03/27 06:52:46;;;;;;;1999.90;999.90;;;;;;;9.59;100.00;98443.31;10438840;28;20053;-64
2024/03/27 06:57:48;;;;;;;1999.90;999.90;;;;;;;9.74;100.00;98451.56;10438369;28;20052;-65
2024/03/27 07:02:49;;;;;;;1999.90;999.90;;;;;;;9.69;99.89;98456.38;10438558;28;20060;-64
2024/03/27 07:07:51;;;;;;;1999.90;999.90;;;;;;;9.91;100.00;98469.13;10438927;28;20049;-64
2024/03/27 07:12:52;;;;;;;1999.90;999.90;;;;;;;9.81;99.30;98481.38;10438394;28;20547;-64
2024/03/27 07:17:54;;;;;;;1999.90;999.90;;;;;;;9.83;97.90;98490.75;10437701;28;20052;-64
2024/03/27 07:22:55;;;;;;;1999.90;999.90;;;;;;;9.83;97.21;98500.34;10438530;28;20052;-65
2024/03/27 07:27:56;;;;;;;1999.90;999.90;;;;;;;9.69;98.23;98513.88;10438159;28;20064;-65
2024/03/27 07:32:58;;;;;;;1999.90;999.90;;;;;;;9.61;96.29;98525.81;10421262;28;20045;-64
2024/03/27 07:37:59;;;;;;;1999.90;999.90;;;;;;;9.43;95.64;98523.06;10437465;28;20401;-64
2024/03/27 07:43:00;;;;;;;1999.90;999.90;;;;;;;9.50;95.80;98541.63;10437495;28;20053;-64
2024/03/27 07:48:02;;;;;;;1999.90;999.90;;;;;;;9.46;97.19;98555.91;10442201;28;20053;-64
2024/03/27 07:53:03;;;;;;;1999.90;999.90;;;;;;;9.15;100.00;98553.41;10444895;28;20049;-64
2024/03/27 07:58:05;;;;;;;1999.90;999.90;;;;;;;9.10;100.00;98551.19;10446535;28;20057;-64
2024/03/27 08:03:06;;;;;;;1999.90;999.90;;;;;;;9.22;100.00;98556.28;10429396;28;20053;-64
2024/03/27 08:08:07;;;;;;;1999.90;999.90;;;;;;;8.99;100.00;98545.25;10445303;28;20076;-64
2024/03/27 08:13:09;;;;;;;1999.90;999.90;;;;;;;9.02;100.00;98547.59;10445347;28;20053;-64
2024/03/27 08:18:10;;;;;;;1999.90;999.90;;;;;;;9.06;100.00;98552.41;10444927;28;20061;-64
2024/03/27 08:23:12;;;;;;;1999.90;999.90;;;;;;;8.92;100.00;98543.16;10444646;28;20053;-64
2024/03/27 08:28:14;;;;;;;1999.90;999.90;;;;;;;9.18;100.00;98547.91;10425138;28;20417;-65
2024/03/27 08:33:15;;;;;;;1999.90;999.90;;;;;;;9.40;100.00;98559.09;10426641;28;20056;-65
2024/03/27 08:38:16;;;;;;;1999.90;999.90;;;;;;;9.28;99.76;98553.16;10444816;28;20048;-66
2024/03/27 08:43:18;;;;;;;1999.90;999.90;;;;;;;9.15;98.33;98548.16;10416675;28;20053;-66
2024/03/27 08:48:19;;;;;;;1999.90;999.90;;;;;;;9.37;100.00;98551.53;10428744;28;20057;-65
2024/03/27 08:53:21;;;;;;;1999.90;999.90;;;;;;;9.55;100.00;98549.88;10417785;28;20061;-64
2024/03/27 08:58:23;;;;;;;1999.90;999.90;;;;;;;9.95;100.00;98537.63;10424740;28;20536;-66
2024/03/27 09:03:24;;;;;;;1999.90;999.90;;;;;;;9.73;100.00;98549.19;10427021;28;20049;-65
2024/03/27 09:08:26;;;;;;;1999.90;999.90;;;;;;;9.91;95.82;98559.78;10403853;28;20057;-66
2024/03/27 09:13:28;;;;;;;1999.90;999.90;;;;;;;10.13;96.11;98575.16;10423053;28;20053;-65
2024/03/27 09:18:29;;;;;;;1999.90;999.90;;;;;;;9.74;97.97;98596.09;10437102;28;20049;-66
2024/03/27 09:23:33;;;;;;;1999.90;999.90;;;;;;;9.55;98.07;98609.13;10415182;28;20049;-65
2024/03/27 09:28:34;;;;;;;1999.90;999.90;;;;;;;9.57;100.00;98618.50;10442303;28;20053;-65
2024/03/27 09:33:35;;;;;;;1999.90;999.90;;;;;;;9.76;100.00;98620.28;10442160;28;20049;-65
2024/03/27 09:38:37;;;;;;;1999.90;999.90;;;;;;;9.93;100.00;98610.13;10440761;28;20049;-65
2024/03/27 09:43:39;;;;;;;1999.90;999.90;;;;;;;9.69;100.00;98621.00;10421322;28;20382;-65
2024/03/27 09:48:41;;;;;;;1999.90;999.90;;;;;;;9.78;100.00;98628.81;10419909;28;20069;-65
2024/03/27 09:53:43;;;;;;;1999.90;999.90;;;;;;;10.09;100.00;98643.59;10438090;28;20498;-65
2024/03/27 09:58:45;;;;;;;1999.90;999.90;;;;;;;10.36;100.00;98643.72;10423632;28;20048;-65
2024/03/27 10:03:46;;;;;;;1999.90;999.90;;;;;;;9.67;100.00;98645.47;10440494;28;20056;-65
2024/03/27 10:08:48;;;;;;;1999.90;999.90;;;;;;;9.75;100.00;98651.78;10423813;28;20106;-65
2024/03/27 10:13:49;;;;;;;1999.90;999.90;;;;;;;9.65;100.00;98655.22;10439626;28;20383;-65
2024/03/27 10:18:51;;;;;;;1999.90;999.90;;;;;;;10.24;100.00;98652.66;10423465;28;20053;-65
2024/03/27 10:23:53;;;;;;;1999.90;999.90;;;;;;;10.23;100.00;98664.06;10439829;28;20049;-65
2024/03/27 10:28:56;;;;;;;1999.90;999.90;;;;;;;9.82;100.00;98672.03;10439763;28;20107;-65
2024/03/27 10:33:58;;;;;;;1999.90;999.90;;;;;;;10.07;100.00;98672.47;10439638;28;20056;-65
2024/03/27 10:39:00;;;;;;;1999.90;999.90;;;;;;;10.04;100.00;98670.94;10438897;28;20049;-65
2024/03/27 10:44:02;;;;;;;1999.90;999.90;;;;;;;9.95;100.00;98668.31;10422900;28;20049;-65
2024/03/27 10:49:04;;;;;;;1999.90;999.90;;;;;;;10.08;100.00;98662.84;10422760;28;20052;-65
2024/03/27 10:54:06;;;;;;;1999.90;999.90;;;;;;;9.79;100.00;98656.63;10422057;28;20072;-65
2024/03/27 10:59:08;;;;;;;1999.90;999.90;;;;;;;9.71;100.00;98651.22;10438679;28;20053;-65
2024/03/27 11:04:09;;;;;;;1999.90;999.90;;;;;;;9.91;100.00;98659.13;10422441;28;20041;-65
2024/03/27 11:09:14;;;;;;;1999.90;999.90;;;;;;;10.00;100.00;98666.97;10438237;28;20055;-65
2024/03/27 11:14:20;;;;;;;1999.90;999.90;;;;;;;10.10;100.00;98668.75;10438143;28;20045;-65
2024/03/27 11:19:37;;;;;;;1999.90;999.90;;;;;;;9.99;100.00;98673.16;10422182;28;20060;-65
2024/03/27 11:24:39;;;;;;;1999.90;999.90;;;;;;;9.78;100.00;98688.09;10451554;28;20064;-65
2024/03/27 11:29:40;;;;;;;1999.90;999.90;;;;;;;10.09;100.00;98685.41;10435020;28;20053;-65
2024/03/27 11:34:42;;;;;;;1999.90;999.90;;;;;;;10.40;100.00;98692.16;10451850;28;20045;-65
2024/03/27 11:39:43;;;;;;;1999.90;999.90;;;;;;;9.98;100.00;98697.63;10452224;28;20057;-65
2024/03/27 11:44:46;;;;;;;1999.90;999.90;;;;;;;9.65;100.00;98701.44;10418508;28;20045;-65
2024/03/27 11:49:47;;;;;;;1999.90;999.90;;;;;;;10.22;100.00;98706.88;10451024;28;20449;-65
2024/03/27 11:54:52;;;;;;;1999.90;999.90;;;;;;;10.01;100.00;98701.78;10434698;28;20064;-65
2024/03/27 12:00:04;;;;;;;1999.90;999.90;;;;;;;9.96;100.00;98698.75;10451429;28;20056;-65
2024/03/27 12:05:06;;;;;;;1999.90;999.90;;;;;;;10.11;100.00;98702.59;10433953;28;20045;-65
2024/03/27 12:10:10;;;;;;;1999.90;999.90;;;;;;;9.91;100.00;98704.38;10450948;28;20060;-65
2024/03/27 12:15:12;;;;;;;1999.90;999.90;;;;;;;9.94;100.00;98713.75;10450140;28;20410;-65
2024/03/27 12:20:14;;;;;;;1999.90;999.90;;;;;;;10.18;100.00;98705.50;10450267;28;20048;-65
2024/03/27 12:25:16;;;;;;;1999.90;999.90;;;;;;;10.01;100.00;98693.94;10450441;28;20052;-65
2024/03/27 12:30:18;;;;;;;1999.90;999.90;;;;;;;10.12;100.00;98693.81;10450428;28;20053;-65
2024/03/27 12:35:21;;;;;;;1999.90;999.90;;;;;;;10.38;100.00;98693.28;10444663;28;20060;-65
2024/03/27 12:40:22;;;;;;;1999.90;999.90;;;;;;;10.81;100.00;98675.47;10443544;28;20052;-65
2024/03/27 12:45:24;;;;;;;1999.90;999.90;;;;;;;10.80;100.00;98671.22;10444141;28;20053;-65
2024/03/27 12:50:25;;;;;;;1999.90;999.90;;;;;;;10.30;99.04;98682.66;10443178;28;20057;-65
2024/03/27 12:55:27;;;;;;;1999.90;999.90;;;;;;;10.65;98.51;98679.50;10443203;28;20063;-65
2024/03/27 13:00:28;;;;;;;1999.90;999.90;;;;;;;10.29;96.77;98670.53;10443161;28;20489;-65
2024/03/27 13:05:31;;;;;;;1999.90;999.90;;;;;;;9.92;98.26;98643.28;10442984;28;20049;-65
2024/03/27 13:10:34;;;;;;;1999.90;999.90;;;;;;;9.69;100.00;98626.22;10426527;28;20068;-65
2024/03/27 13:15:35;;;;;;;1999.90;999.90;;;;;;;10.39;100.00;98625.16;10442050;28;20410;-65
2024/03/27 13:20:37;;;;;;;1999.90;999.90;;;;;;;9.95;100.00;98634.34;10441998;28;20060;-65
2024/03/27 13:25:38;;;;;;;1999.90;999.90;;;;;;;10.45;98.74;98642.06;10442626;28;20052;-65
2024/03/27 13:30:39;;;;;;;1999.90;999.90;;;;;;;10.45;97.44;98636.00;10441883;28;20060;-65
2024/03/27 13:35:41;;;;;;;1999.90;999.90;;;;;;;10.59;96.19;98639.03;10441464;28;20053;-65
2024/03/27 13:40:42;;;;;;;1999.90;999.90;;;;;;;10.70;95.41;98645.06;10425153;28;20063;-65
2024/03/27 13:45:43;;;;;;;1999.90;999.90;;;;;;;10.26;97.63;98649.91;10440700;28;20486;-65
2024/03/27 13:50:45;;;;;;;1999.90;999.90;;;;;;;10.24;94.84;98642.19;10440530;28;20508;-65
2024/03/27 13:55:46;;;;;;;1999.90;999.90;;;;;;;10.51;94.20;98646.75;10439881;28;20529;-65
2024/03/27 14:00:48;;;;;;;1999.90;999.90;;;;;;;10.55;96.78;98658.56;10407338;28;20387;-65
2024/03/27 14:05:50;;;;;;;1999.90;999.90;;;;;;;10.08;93.95;98675.91;10440934;28;20056;-65
2024/03/27 14:10:51;;;;;;;1999.90;999.90;;;;;;;10.06;96.28;98689.13;10440205;28;20055;-65
2024/03/27 14:15:52;;;;;;;1999.90;999.90;;;;;;;10.10;95.20;98685.25;10439892;28;20087;-66
2024/03/27 14:20:54;;;;;;;1999.90;999.90;;;;;;;10.33;96.43;98701.53;10423735;28;20063;-65
2024/03/27 14:25:56;;;;;;;1999.90;999.90;;;;;;;10.13;94.71;98694.63;10439360;28;20056;-66
2024/03/27 14:30:57;;;;;;;1999.90;999.90;;;;;;;10.20;93.37;98701.81;10439627;28;20068;-66
2024/03/27 14:35:58;;;;;;;1999.90;999.90;;;;;;;10.25;95.74;98705.78;10422395;28;20079;-66
2024/03/27 14:41:00;;;;;;;1999.90;999.90;;;;;;;10.41;95.98;98701.69;10439037;28;20057;-66
2024/03/27 14:46:01;;;;;;;1999.90;999.90;;;;;;;10.54;94.59;98701.41;10422671;28;20107;-66
2024/03/27 14:51:02;;;;;;;1999.90;999.90;;;;;;;10.48;93.18;98706.38;10438887;28;20056;-66
2024/03/27 14:56:06;;;;;;;1999.90;999.90;;;;;;;10.43;91.74;98701.56;10421059;28;20056;-66
2024/03/27 15:01:07;;;;;;;1999.90;999.90;;;;;;;10.06;92.47;98704.00;10438945;28;20049;-65
2024/03/27 15:06:09;;;;;;;1999.90;999.90;;;;;;;10.29;90.62;98696.69;10438332;28;20130;-65
2024/03/27 15:11:10;;;;;;;1999.90;999.90;;;;;;;10.47;90.31;98696.88;10422397;28;20052;-66
2024/03/27 15:16:11;;;;;;;1999.90;999.90;;;;;;;10.14;90.36;98691.06;10437659;28;20410;-65
2024/03/27 15:21:13;;;;;;;1999.90;999.90;;;;;;;10.20;93.49;98699.19;10437190;28;20049;-66
2024/03/27 15:26:14;;;;;;;1999.90;999.90;;;;;;;10.27;92.13;98707.31;10437476;28;20485;-65
2024/03/27 15:31:16;;;;;;;1999.90;999.90;;;;;;;10.27;90.94;98696.84;10420806;28;20058;-65
2024/03/27 15:36:17;;;;;;;1999.90;999.90;;;;;;;10.49;94.10;98708.00;10404685;28;20064;-66
2024/03/27 15:41:19;;;;;;;1999.90;999.90;;;;;;;10.17;93.41;98702.06;10437934;28;20048;-66
2024/03/27 15:46:20;;;;;;;1999.90;999.90;;;;;;;9.90;90.50;98694.91;10437798;28;20075;-65
2024/03/27 15:51:21;;;;;;;1999.90;999.90;;;;;;;10.01;92.05;98704.38;10437698;28;20061;-65
2024/03/27 15:56:23;;;;;;;1999.90;999.90;;;;;;;10.23;90.61;98713.75;10420409;28;20053;-65
2024/03/27 16:01:24;;;;;;;1999.90;999.90;;;;;;;10.35;90.80;98707.47;10437239;28;20056;-66
2024/03/27 16:06:26;;;;;;;1999.90;999.90;;;;;;;10.21;91.06;98713.91;10437766;28;20057;-65
2024/03/27 16:11:27;;;;;;;1999.90;999.90;;;;;;;10.32;92.27;98715.59;10461980;22;20119;-65
2024/03/27 16:16:28;;;;;;;1999.90;999.90;;;;;;;10.16;92.03;98717.91;10460999;28;20044;-65
2024/03/27 16:21:30;;;;;;;1999.90;999.90;;;;;;;10.10;93.11;98706.19;10461611;28;20068;-65
2024/03/27 16:26:31;;;;;;;1999.90;999.90;;;;;;;10.00;93.12;98707.94;10461479;28;20041;-65
2024/03/27 16:31:33;;;;;;;1999.90;999.90;;;;;;;10.08;90.61;98708.09;10461027;28;20057;-65
2024/03/27 16:36:34;;;;;;;1999.90;999.90;;;;;;;9.90;95.09;98702.72;10443972;28;20052;-65
2024/03/27 16:41:35;;;;;;;1999.90;999.90;;;;;;;9.86;93.93;98693.50;10460246;28;20060;-65
2024/03/27 16:46:37;;;;;;;1999.90;999.90;;;;;;;9.90;92.05;98697.50;10459583;28;20521;-65
2024/03/27 16:51:38;;;;;;;1999.90;999.90;;;;;;;9.96;93.52;98699.56;10443880;28;20057;-66
2024/03/27 16:56:39;;;;;;;1999.90;999.90;;;;;;;9.89;92.12;98692.41;10459500;28;20045;-66
2024/03/27 17:01:41;;;;;;;1999.90;999.90;;;;;;;9.84;91.95;98709.31;10459222;28;20492;-66
2024/03/27 17:06:42;;;;;;;1999.90;999.90;;;;;;;9.94;92.56;98698.88;10459292;28;20049;-66
2024/03/27 17:11:43;;;;;;;1999.90;999.90;;;;;;;9.67;93.67;98704.75;10458724;28;20060;-66
2024/03/27 17:16:47;;;;;;;1999.90;999.90;;;;;;;9.81;96.75;98717.41;10458756;28;20052;-66
2024/03/27 17:21:48;;;;;;;1999.90;999.90;;;;;;;9.67;94.25;98702.13;10458119;28;20052;-66
2024/03/27 17:26:50;;;;;;;1999.90;999.90;;;;;;;9.56;94.23;98713.50;10459120;28;20102;-66
2024/03/27 17:31:54;;;;;;;1999.90;999.90;;;;;;;9.44;97.51;98717.16;10457949;28;20425;-66
2024/03/27 17:36:56;;;;;;;1999.90;999.90;;;;;;;9.47;95.30;98722.13;10457912;28;20072;-66
2024/03/27 17:41:57;;;;;;;1999.90;999.90;;;;;;;9.34;95.39;98724.13;10457705;28;20421;-66
2024/03/27 17:46:58;;;;;;;1999.90;999.90;;;;;;;9.42;98.08;98724.31;10457001;28;20054;-65
2024/03/27 17:52:00;;;;;;;1999.90;999.90;;;;;;;9.29;96.48;98729.75;10457796;28;20061;-65
2024/03/27 17:57:02;;;;;;;1999.90;999.90;;;;;;;9.14;97.92;98723.22;10456656;28;20053;-65
2024/03/27 18:02:03;;;;;;;1999.90;999.90;;;;;;;9.04;97.62;98717.94;10457311;28;20067;-65
2024/03/27 18:07:05;;;;;;;1999.90;999.90;;;;;;;9.02;97.78;98723.28;10457213;28;20095;-66
2024/03/27 18:12:06;;;;;;;1999.90;999.90;;;;;;;9.04;99.04;98731.00;10456793;28;20053;-66
2024/03/27 18:17:08;;;;;;;1999.90;999.90;;;;;;;9.05;98.67;98736.09;10456393;28;20045;-65
2024/03/27 18:22:09;;;;;;;1999.90;999.90;;;;;;;8.72;100.00;98742.31;10456741;28;20079;-65
2024/03/27 18:27:10;;;;;;;1999.90;999.90;;;;;;;8.67;100.00;98737.47;10455958;28;20456;-65
2024/03/27 18:32:12;;;;;;;1999.90;999.90;;;;;;;8.58;100.00;98747.88;10455572;28;20059;-65
2024/03/27 18:37:13;;;;;;;1999.90;999.90;;;;;;;8.65;100.00;98751.63;10455719;28;20068;-65
2024/03/27 18:42:16;;;;;;;1999.90;999.90;;;;;;;8.63;100.00;98753.53;10455304;28;20482;-65
2024/03/27 18:47:17;;;;;;;1999.90;999.90;;;;;;;8.47;100.00;98744.34;10455254;28;20494;-65
2024/03/27 18:52:18;;;;;;;1999.90;999.90;;;;;;;8.25;100.00;98740.00;10455263;28;20062;-66
2024/03/27 18:57:21;;;;;;;1999.90;999.90;;;;;;;8.34;100.00;98743.66;10455145;28;20124;-66
2024/03/27 19:02:22;;;;;;;1999.90;999.90;;;;;;;8.17;100.00;98743.22;10455371;28;20057;-66
2024/03/27 19:07:24;;;;;;;1999.90;999.90;;;;;;;8.12;100.00;98742.78;10455153;28;20068;-66
2024/03/27 19:12:25;;;;;;;1999.90;999.90;;;;;;;7.99;100.00;98752.53;10454600;28;20060;-66
2024/03/27 19:17:26;;;;;;;1999.90;999.90;;;;;;;7.78;100.00;98745.44;10454578;28;20045;-66
2024/03/27 19:22:28;;;;;;;1999.90;999.90;;;;;;;7.95;100.00;98725.88;10454220;28;20478;-66
2024/03/27 19:27:29;;;;;;;1999.90;999.90;;;;;;;7.57;100.00;98732.31;10455022;28;20094;-66
2024/03/27 19:32:30;;;;;;;1999.90;999.90;;;;;;;7.70;100.00;98745.22;10454914;28;20053;-66
2024/03/27 19:37:32;;;;;;;1999.90;999.90;;;;;;;7.59;100.00;98747.81;10454338;28;20049;-66
2024/03/27 19:42:33;;;;;;;1999.90;999.90;;;;;;;7.81;100.00;98734.75;10456991;28;20057;-66
2024/03/27 19:47:35;;;;;;;1999.90;999.90;;;;;;;7.93;100.00;98730.34;10462264;28;20075;-66
2024/03/27 19:52:36;;;;;;;1999.90;999.90;;;;;;;7.70;100.00;98733.94;10462622;28;20056;-66
2024/03/27 19:57:37;;;;;;;1999.90;999.90;;;;;;;7.81;100.00;98721.75;10462473;28;20069;-65
2024/03/27 20:02:39;;;;;;;1999.90;999.90;;;;;;;7.62;100.00;98711.94;10462285;28;20053;-65
2024/03/27 20:07:40;;;;;;;1999.90;999.90;;;;;;;7.56;100.00;98712.41;10461869;28;20107;-65
2024/03/27 20:12:43;;;;;;;1999.90;999.90;;;;;;;7.43;100.00;98711.72;10461392;28;20053;-65
2024/03/27 20:17:44;;;;;;;1999.90;999.90;;;;;;;7.35;100.00;98714.09;10460733;28;20416;-65
2024/03/27 20:22:46;;;;;;;1999.90;999.90;;;;;;;7.33;100.00;98713.38;10460611;28;20441;-65
2024/03/27 20:27:47;;;;;;;1999.90;999.90;;;;;;;7.10;100.00;98707.34;10460873;28;20072;-65
2024/03/27 20:32:49;;;;;;;1999.90;999.90;;;;;;;7.24;100.00;98691.50;10460365;28;20056;-65
2024/03/27 20:37:50;;;;;;;1999.90;999.90;;;;;;;7.12;100.00;98679.44;10460831;28;20053;-65
2024/03/27 20:42:51;;;;;;;1999.90;999.90;;;;;;;7.04;100.00;98670.44;10460371;28;20061;-65
2024/03/27 20:47:53;;;;;;;1999.90;999.90;;;;;;;7.14;100.00;98673.16;10476903;28;20068;-65
2024/03/27 20:52:54;;;;;;;1999.90;999.90;;;;;;;7.15;100.00;98666.19;10459315;28;20116;-65
2024/03/27 20:57:56;;;;;;;1999.90;999.90;;;;;;;7.25;100.00;98660.13;10459820;28;20497;-65
2024/03/27 21:03:01;;;;;;;1999.90;999.90;;;;;;;7.30;100.00;98661.56;10460022;28;20056;-65
2024/03/27 21:08:03;;;;;;;1999.90;999.90;;;;;;;6.89;100.00;98669.00;10459902;28;20060;-65
2024/03/27 21:13:06;;;;;;;1999.90;999.90;;;;;;;6.83;100.00;98665.09;10459112;28;20057;-65
2024/03/27 21:18:07;;;;;;;1999.90;999.90;;;;;;;7.01;100.00;98677.63;10443075;28;20064;-65
2024/03/27 21:23:08;;;;;;;1999.90;999.90;;;;;;;6.85;100.00;98686.63;10459480;28;20056;-65
2024/03/27 21:28:10;;;;;;;1999.90;999.90;;;;;;;6.72;100.00;98678.06;10459177;28;20064;-65
2024/03/27 21:33:12;;;;;;;1999.90;999.90;;;;;;;6.60;100.00;98666.00;10458742;28;20041;-66
2024/03/27 21:38:13;;;;;;;1999.90;999.90;;;;;;;6.80;100.00;98677.50;10458552;28;20052;-66
2024/03/27 21:43:15;;;;;;;1999.90;999.90;;;;;;;6.64;100.00;98664.81;10458097;28;20051;-66
2024/03/27 21:48:18;;;;;;;1999.90;999.90;;;;;;;6.46;100.00;98661.84;10457301;28;20413;-66
2024/03/27 21:53:19;;;;;;;1999.90;999.90;;;;;;;6.68;100.00;98654.06;10457275;28;20478;-66
2024/03/27 21:58:21;;;;;;;1999.90;999.90;;;;;;;6.62;100.00;98651.09;10458493;28;20091;-66
2024/03/27 22:03:22;;;;;;;1999.90;999.90;;;;;;;6.48;100.00;98647.78;10457247;28;20045;-66
2024/03/27 22:08:24;;;;;;;1999.90;999.90;;;;;;;6.63;100.00;98651.00;10456656;28;20072;-66
2024/03/27 22:13:26;;;;;;;1999.90;999.90;;;;;;;6.51;100.00;98641.53;10456703;28;20049;-66